sensor_id;sensor_type;location;lat;lon;timestamp;temperature;humidity
33594;DHT22;19920;52.242;20.940;2023-02-15T00:01:15;4.30;99.90
33594;DHT22;19920;52.242;20.940;2023-02-15T00:03:41;4.30;99.90
33594;DHT22;19920;52.242;20.940;2023-02-15T00:06:07;4.40;99.90
33594;DHT22;19920;52.242;20.940;2023-02-15T00:08:32;4.40;99.90
33594;DHT22;19920;52.242;20.940;2023-02-15T00:11:12;4.40;99.90
33594;DHT22;19920;52.242;20.940;2023-02-15T00:13:39;4.30;99.90
33594;DHT22;19920;52.242;20.940;2023-02-15T00:16:09;4.30;99.90
33594;DHT22;19920;52.242;20.940;2023-02-15T00:18:35;4.20;99.90
33594;DHT22;19920;52.242;20.940;2023-02-15T00:21:09;4.20;99.90
33594;DHT22;19920;52.242;20.940;2023-02-15T00:23:35;4.20;99.90
33594;DHT22;19920;52.242;20.940;2023-02-15T00:26:11;4.30;99.90
33594;DHT22;19920;52.242;20.940;2023-02-15T00:28:37;4.40;99.90
33594;DHT22;19920;52.242;20.940;2023-02-15T00:31:10;4.30;99.90
33594;DHT22;19920;52.242;20.940;2023-02-15T00:33:37;4.20;99.90
33594;DHT22;19920;52.242;20.940;2023-02-15T00:36:05;4.30;99.90
33594;DHT22;19920;52.242;20.940;2023-02-15T00:38:31;4.30;99.90
33594;DHT22;19920;52.242;20.940;2023-02-15T00:40:58;4.40;99.90
33594;DHT22;19920;52.242;20.940;2023-02-15T00:43:26;4.40;99.90
33594;DHT22;19920;52.242;20.940;2023-02-15T00:45:51;4.50;99.90
33594;DHT22;19920;52.242;20.940;2023-02-15T00:48:18;4.50;99.90
33594;DHT22;19920;52.242;20.940;2023-02-15T00:50:50;4.50;99.90
33594;DHT22;19920;52.242;20.940;2023-02-15T00:53:16;4.50;99.90
33594;DHT22;19920;52.242;20.940;2023-02-15T00:55:41;4.50;99.90
33594;DHT22;19920;52.242;20.940;2023-02-15T00:58:08;4.50;99.90
33594;DHT22;19920;52.242;20.940;2023-02-15T01:00:34;4.50;99.90
33594;DHT22;19920;52.242;20.940;2023-02-15T01:03:00;4.60;99.90
33594;DHT22;19920;52.242;20.940;2023-02-15T01:05:26;4.70;99.90
33594;DHT22;19920;52.242;20.940;2023-02-15T01:07:52;4.70;99.90
33594;DHT22;19920;52.242;20.940;2023-02-15T01:10:17;4.70;99.90
33594;DHT22;19920;52.242;20.940;2023-02-15T01:12:43;4.60;99.90
33594;DHT22;19920;52.242;20.940;2023-02-15T01:15:09;4.50;99.90
33594;DHT22;19920;52.242;20.940;2023-02-15T01:17:35;4.50;99.90
33594;DHT22;19920;52.242;20.940;2023-02-15T01:20:01;4.50;99.90
33594;DHT22;19920;52.242;20.940;2023-02-15T01:22:26;4.50;99.90
33594;DHT22;19920;52.242;20.940;2023-02-15T01:24:52;4.50;99.90
33594;DHT22;19920;52.242;20.940;2023-02-15T01:27:18;4.50;99.90
33594;DHT22;19920;52.242;20.940;2023-02-15T01:29:44;4.50;99.90
33594;DHT22;19920;52.242;20.940;2023-02-15T01:32:09;4.50;99.90
33594;DHT22;19920;52.242;20.940;2023-02-15T01:34:35;4.50;99.90
33594;DHT22;19920;52.242;20.940;2023-02-15T01:37:00;4.50;99.90
33594;DHT22;19920;52.242;20.940;2023-02-15T01:39:26;4.50;99.90
33594;DHT22;19920;52.242;20.940;2023-02-15T01:41:52;4.60;99.90
33594;DHT22;19920;52.242;20.940;2023-02-15T01:47:10;4.40;99.90
33594;DHT22;19920;52.242;20.940;2023-02-15T01:49:38;4.50;99.90
33594;DHT22;19920;52.242;20.940;2023-02-15T01:52:07;4.60;99.90
33594;DHT22;19920;52.242;20.940;2023-02-15T01:54:34;4.60;99.90
33594;DHT22;19920;52.242;20.940;2023-02-15T01:57:13;4.60;99.90
33594;DHT22;19920;52.242;20.940;2023-02-15T01:59:44;4.50;99.90
33594;DHT22;19920;52.242;20.940;2023-02-15T02:02:12;4.50;99.90
33594;DHT22;19920;52.242;20.940;2023-02-15T02:04:47;4.50;99.90
33594;DHT22;19920;52.242;20.940;2023-02-15T02:07:16;4.60;99.90
33594;DHT22;19920;52.242;20.940;2023-02-15T02:09:43;4.50;99.90
33594;DHT22;19920;52.242;20.940;2023-02-15T02:12:09;4.50;99.90
33594;DHT22;19920;52.242;20.940;2023-02-15T02:14:36;4.50;99.90
33594;DHT22;19920;52.242;20.940;2023-02-15T02:32:03;4.70;99.90
33594;DHT22;19920;52.242;20.940;2023-02-15T02:37:37;4.80;99.90
33594;DHT22;19920;52.242;20.940;2023-02-15T02:40:16;4.80;99.90
33594;DHT22;19920;52.242;20.940;2023-02-15T02:42:54;4.80;99.90
33594;DHT22;19920;52.242;20.940;2023-02-15T02:45:39;4.80;99.90
33594;DHT22;19920;52.242;20.940;2023-02-15T02:48:13;4.70;99.90
33594;DHT22;19920;52.242;20.940;2023-02-15T02:50:41;4.80;99.90
33594;DHT22;19920;52.242;20.940;2023-02-15T02:53:09;4.80;99.90
33594;DHT22;19920;52.242;20.940;2023-02-15T02:55:43;4.70;99.90
33594;DHT22;19920;52.242;20.940;2023-02-15T03:00:49;4.80;99.90
33594;DHT22;19920;52.242;20.940;2023-02-15T03:05:50;4.80;99.90
33594;DHT22;19920;52.242;20.940;2023-02-15T03:08:20;4.90;99.90
33594;DHT22;19920;52.242;20.940;2023-02-15T03:10:48;4.90;99.90
33594;DHT22;19920;52.242;20.940;2023-02-15T03:13:18;4.90;99.90
33594;DHT22;19920;52.242;20.940;2023-02-15T03:15:44;5.00;99.90
33594;DHT22;19920;52.242;20.940;2023-02-15T03:18:38;4.90;99.90
33594;DHT22;19920;52.242;20.940;2023-02-15T03:21:05;4.90;99.90
33594;DHT22;19920;52.242;20.940;2023-02-15T03:23:34;4.90;99.90
33594;DHT22;19920;52.242;20.940;2023-02-15T03:26:06;4.90;99.90
33594;DHT22;19920;52.242;20.940;2023-02-15T03:28:42;4.90;99.90
33594;DHT22;19920;52.242;20.940;2023-02-15T03:31:10;4.90;99.90
33594;DHT22;19920;52.242;20.940;2023-02-15T03:34:02;4.90;99.90
33594;DHT22;19920;52.242;20.940;2023-02-15T03:36:31;4.80;99.90
33594;DHT22;19920;52.242;20.940;2023-02-15T03:39:22;4.80;99.90
33594;DHT22;19920;52.242;20.940;2023-02-15T03:44:39;5.00;99.90
33594;DHT22;19920;52.242;20.940;2023-02-15T03:47:14;4.90;99.90
33594;DHT22;19920;52.242;20.940;2023-02-15T03:52:11;4.90;99.90
33594;DHT22;19920;52.242;20.940;2023-02-15T03:54:39;4.90;99.90
33594;DHT22;19920;52.242;20.940;2023-02-15T04:00:14;5.00;99.90
33594;DHT22;19920;52.242;20.940;2023-02-15T04:03:07;4.90;99.90
33594;DHT22;19920;52.242;20.940;2023-02-15T04:05:34;5.00;99.90
33594;DHT22;19920;52.242;20.940;2023-02-15T04:08:01;4.90;99.90
33594;DHT22;19920;52.242;20.940;2023-02-15T04:10:26;4.90;99.90
33594;DHT22;19920;52.242;20.940;2023-02-15T04:13:10;4.90;99.90
33594;DHT22;19920;52.242;20.940;2023-02-15T04:15:36;4.80;99.90
33594;DHT22;19920;52.242;20.940;2023-02-15T04:18:20;4.80;99.90
33594;DHT22;19920;52.242;20.940;2023-02-15T04:20:46;4.80;99.90
33594;DHT22;19920;52.242;20.940;2023-02-15T04:23:31;4.90;99.90
33594;DHT22;19920;52.242;20.940;2023-02-15T04:26:15;4.80;99.90
33594;DHT22;19920;52.242;20.940;2023-02-15T04:28:41;4.80;99.90
33594;DHT22;19920;52.242;20.940;2023-02-15T04:31:07;4.80;99.90
33594;DHT22;19920;52.242;20.940;2023-02-15T04:33:32;4.70;99.90
33594;DHT22;19920;52.242;20.940;2023-02-15T04:35:58;4.70;99.90
33594;DHT22;19920;52.242;20.940;2023-02-15T04:38:24;4.70;99.90
33594;DHT22;19920;52.242;20.940;2023-02-15T04:40:50;4.70;99.90
33594;DHT22;19920;52.242;20.940;2023-02-15T04:43:18;4.60;99.90
33594;DHT22;19920;52.242;20.940;2023-02-15T04:45:53;4.50;99.90
33594;DHT22;19920;52.242;20.940;2023-02-15T04:48:18;4.50;99.90
33594;DHT22;19920;52.242;20.940;2023-02-15T04:50:44;4.50;99.90
33594;DHT22;19920;52.242;20.940;2023-02-15T04:53:10;4.50;99.90
33594;DHT22;19920;52.242;20.940;2023-02-15T04:55:36;4.50;99.90
33594;DHT22;19920;52.242;20.940;2023-02-15T04:58:01;4.50;99.90
33594;DHT22;19920;52.242;20.940;2023-02-15T05:00:27;4.50;99.90
33594;DHT22;19920;52.242;20.940;2023-02-15T05:02:53;4.40;99.90
33594;DHT22;19920;52.242;20.940;2023-02-15T05:05:19;4.30;99.90
33594;DHT22;19920;52.242;20.940;2023-02-15T05:07:44;4.30;99.90
33594;DHT22;19920;52.242;20.940;2023-02-15T05:10:10;4.40;99.90
33594;DHT22;19920;52.242;20.940;2023-02-15T05:12:36;4.40;99.90
33594;DHT22;19920;52.242;20.940;2023-02-15T05:15:02;4.40;99.90
33594;DHT22;19920;52.242;20.940;2023-02-15T05:17:27;4.40;99.90
33594;DHT22;19920;52.242;20.940;2023-02-15T05:19:53;4.50;99.90
33594;DHT22;19920;52.242;20.940;2023-02-15T05:22:19;4.50;99.90
33594;DHT22;19920;52.242;20.940;2023-02-15T05:24:44;4.50;99.90
33594;DHT22;19920;52.242;20.940;2023-02-15T05:27:28;4.40;99.90
33594;DHT22;19920;52.242;20.940;2023-02-15T05:30:13;4.30;99.90
33594;DHT22;19920;52.242;20.940;2023-02-15T05:32:39;4.40;99.90
33594;DHT22;19920;52.242;20.940;2023-02-15T05:35:05;4.50;99.90
33594;DHT22;19920;52.242;20.940;2023-02-15T05:37:31;4.50;99.90
33594;DHT22;19920;52.242;20.940;2023-02-15T05:39:58;4.50;99.90
33594;DHT22;19920;52.242;20.940;2023-02-15T05:42:23;4.60;99.90
33594;DHT22;19920;52.242;20.940;2023-02-15T05:44:49;4.60;99.90
33594;DHT22;19920;52.242;20.940;2023-02-15T05:47:15;4.50;99.90
33594;DHT22;19920;52.242;20.940;2023-02-15T05:49:40;4.50;99.90
33594;DHT22;19920;52.242;20.940;2023-02-15T05:52:06;4.50;99.90
33594;DHT22;19920;52.242;20.940;2023-02-15T05:54:31;4.50;99.90
33594;DHT22;19920;52.242;20.940;2023-02-15T05:56:57;4.50;99.90
33594;DHT22;19920;52.242;20.940;2023-02-15T05:59:23;4.40;99.90
33594;DHT22;19920;52.242;20.940;2023-02-15T06:01:49;4.30;99.90
33594;DHT22;19920;52.242;20.940;2023-02-15T06:04:14;4.30;99.90
33594;DHT22;19920;52.242;20.940;2023-02-15T06:06:40;4.20;99.90
33594;DHT22;19920;52.242;20.940;2023-02-15T06:09:05;4.20;99.90
33594;DHT22;19920;52.242;20.940;2023-02-15T06:11:31;4.30;99.90
33594;DHT22;19920;52.242;20.940;2023-02-15T06:13:57;4.30;99.90
33594;DHT22;19920;52.242;20.940;2023-02-15T06:16:22;4.30;99.90
33594;DHT22;19920;52.242;20.940;2023-02-15T06:18:48;4.30;99.90
33594;DHT22;19920;52.242;20.940;2023-02-15T06:21:13;4.30;99.90
33594;DHT22;19920;52.242;20.940;2023-02-15T06:23:39;4.40;99.90
33594;DHT22;19920;52.242;20.940;2023-02-15T06:26:05;4.50;99.90
33594;DHT22;19920;52.242;20.940;2023-02-15T06:28:30;4.40;99.90
33594;DHT22;19920;52.242;20.940;2023-02-15T06:30:56;4.50;99.90
33594;DHT22;19920;52.242;20.940;2023-02-15T06:33:22;4.30;99.90
33594;DHT22;19920;52.242;20.940;2023-02-15T06:35:48;4.30;99.90
33594;DHT22;19920;52.242;20.940;2023-02-15T06:38:13;4.20;99.90
33594;DHT22;19920;52.242;20.940;2023-02-15T06:40:39;4.10;99.90
33594;DHT22;19920;52.242;20.940;2023-02-15T06:43:05;4.10;99.90
33594;DHT22;19920;52.242;20.940;2023-02-15T06:45:30;4.00;99.90
33594;DHT22;19920;52.242;20.940;2023-02-15T06:47:56;4.00;99.90
33594;DHT22;19920;52.242;20.940;2023-02-15T06:50:21;4.00;99.90
33594;DHT22;19920;52.242;20.940;2023-02-15T06:52:47;4.00;99.90
33594;DHT22;19920;52.242;20.940;2023-02-15T06:55:13;4.00;99.90
33594;DHT22;19920;52.242;20.940;2023-02-15T06:57:38;4.10;99.90
33594;DHT22;19920;52.242;20.940;2023-02-15T07:00:05;4.20;99.90
33594;DHT22;19920;52.242;20.940;2023-02-15T07:02:32;4.20;99.90
33594;DHT22;19920;52.242;20.940;2023-02-15T07:04:58;4.30;99.90
33594;DHT22;19920;52.242;20.940;2023-02-15T07:07:24;4.40;99.90
33594;DHT22;19920;52.242;20.940;2023-02-15T07:09:49;4.50;99.90
33594;DHT22;19920;52.242;20.940;2023-02-15T07:12:15;4.50;99.90
33594;DHT22;19920;52.242;20.940;2023-02-15T07:14:59;4.50;99.90
33594;DHT22;19920;52.242;20.940;2023-02-15T07:17:25;4.50;99.90
33594;DHT22;19920;52.242;20.940;2023-02-15T07:19:54;4.40;99.90
33594;DHT22;19920;52.242;20.940;2023-02-15T07:22:19;4.50;99.90
33594;DHT22;19920;52.242;20.940;2023-02-15T07:24:45;4.40;99.90
33594;DHT22;19920;52.242;20.940;2023-02-15T07:27:11;4.30;99.90
33594;DHT22;19920;52.242;20.940;2023-02-15T07:29:36;4.20;99.90
33594;DHT22;19920;52.242;20.940;2023-02-15T07:32:02;4.30;99.90
33594;DHT22;19920;52.242;20.940;2023-02-15T07:34:27;4.30;99.90
33594;DHT22;19920;52.242;20.940;2023-02-15T07:36:53;4.50;99.90
33594;DHT22;19920;52.242;20.940;2023-02-15T07:39:19;4.50;99.90
33594;DHT22;19920;52.242;20.940;2023-02-15T07:41:46;4.40;99.90
33594;DHT22;19920;52.242;20.940;2023-02-15T07:44:13;4.30;99.90
33594;DHT22;19920;52.242;20.940;2023-02-15T07:46:39;4.30;99.90
33594;DHT22;19920;52.242;20.940;2023-02-15T07:49:04;4.30;99.90
33594;DHT22;19920;52.242;20.940;2023-02-15T07:51:30;4.40;99.90
33594;DHT22;19920;52.242;20.940;2023-02-15T07:53:56;4.40;99.90
33594;DHT22;19920;52.242;20.940;2023-02-15T07:56:21;4.50;99.90
33594;DHT22;19920;52.242;20.940;2023-02-15T07:58:47;4.40;99.90
33594;DHT22;19920;52.242;20.940;2023-02-15T08:01:21;4.40;99.90
33594;DHT22;19920;52.242;20.940;2023-02-15T08:03:47;4.40;99.90
33594;DHT22;19920;52.242;20.940;2023-02-15T08:06:13;4.50;99.90
33594;DHT22;19920;52.242;20.940;2023-02-15T08:08:40;4.40;99.90
33594;DHT22;19920;52.242;20.940;2023-02-15T08:16:38;4.50;99.90
33594;DHT22;19920;52.242;20.940;2023-02-15T08:21:33;4.50;99.90
33594;DHT22;19920;52.242;20.940;2023-02-15T08:23:59;4.50;99.90
33594;DHT22;19920;52.242;20.940;2023-02-15T08:26:26;4.60;99.90
33594;DHT22;19920;52.242;20.940;2023-02-15T08:28:53;4.50;99.90
33594;DHT22;19920;52.242;20.940;2023-02-15T08:31:18;4.60;99.90
33594;DHT22;19920;52.242;20.940;2023-02-15T08:33:45;4.60;99.90
33594;DHT22;19920;52.242;20.940;2023-02-15T08:36:14;4.60;99.90
33594;DHT22;19920;52.242;20.940;2023-02-15T08:38:41;4.70;99.90
33594;DHT22;19920;52.242;20.940;2023-02-15T08:43:40;4.60;99.90
33594;DHT22;19920;52.242;20.940;2023-02-15T08:46:06;4.50;99.90
33594;DHT22;19920;52.242;20.940;2023-02-15T08:48:32;4.60;99.90
33594;DHT22;19920;52.242;20.940;2023-02-15T08:50:58;4.70;99.90
33594;DHT22;19920;52.242;20.940;2023-02-15T08:53:24;4.70;99.90
33594;DHT22;19920;52.242;20.940;2023-02-15T08:55:59;4.70;99.90
33594;DHT22;19920;52.242;20.940;2023-02-15T08:58:25;4.80;99.90
33594;DHT22;19920;52.242;20.940;2023-02-15T09:00:51;4.70;99.90
33594;DHT22;19920;52.242;20.940;2023-02-15T09:03:17;4.70;99.90
33594;DHT22;19920;52.242;20.940;2023-02-15T09:05:42;4.80;99.90
33594;DHT22;19920;52.242;20.940;2023-02-15T09:08:08;4.70;99.90
33594;DHT22;19920;52.242;20.940;2023-02-15T09:10:34;4.80;99.90
33594;DHT22;19920;52.242;20.940;2023-02-15T09:12:59;4.70;99.90
33594;DHT22;19920;52.242;20.940;2023-02-15T09:15:25;4.60;99.90
33594;DHT22;19920;52.242;20.940;2023-02-15T09:17:51;4.70;99.90
33594;DHT22;19920;52.242;20.940;2023-02-15T09:20:16;4.60;99.90
33594;DHT22;19920;52.242;20.940;2023-02-15T09:22:42;4.70;99.90
33594;DHT22;19920;52.242;20.940;2023-02-15T09:25:08;4.60;99.90
33594;DHT22;19920;52.242;20.940;2023-02-15T09:27:34;4.70;99.90
33594;DHT22;19920;52.242;20.940;2023-02-15T09:29:59;4.60;99.90
33594;DHT22;19920;52.242;20.940;2023-02-15T09:32:25;4.60;99.90
33594;DHT22;19920;52.242;20.940;2023-02-15T09:34:51;4.50;99.90
33594;DHT22;19920;52.242;20.940;2023-02-15T09:37:16;4.50;99.90
33594;DHT22;19920;52.242;20.940;2023-02-15T09:39:43;4.50;99.90
33594;DHT22;19920;52.242;20.940;2023-02-15T09:48:25;4.50;99.90
33594;DHT22;19920;52.242;20.940;2023-02-15T09:56:45;4.50;99.90
33594;DHT22;19920;52.242;20.940;2023-02-15T09:59:50;4.60;99.90
33594;DHT22;19920;52.242;20.940;2023-02-15T10:05:09;4.50;99.90
33594;DHT22;19920;52.242;20.940;2023-02-15T10:10:33;4.60;99.90
33594;DHT22;19920;52.242;20.940;2023-02-15T10:13:31;4.60;99.90
33594;DHT22;19920;52.242;20.940;2023-02-15T10:27:07;4.80;99.90
33594;DHT22;19920;52.242;20.940;2023-02-15T10:29:38;4.80;99.90
33594;DHT22;19920;52.242;20.940;2023-02-15T10:40:32;4.80;99.90
33594;DHT22;19920;52.242;20.940;2023-02-15T10:49:18;4.80;99.90
33594;DHT22;19920;52.242;20.940;2023-02-15T10:54:49;4.70;99.90
33594;DHT22;19920;52.242;20.940;2023-02-15T10:57:31;4.60;99.90
33594;DHT22;19920;52.242;20.940;2023-02-15T11:00:17;4.70;99.90
33594;DHT22;19920;52.242;20.940;2023-02-15T11:03:25;4.70;99.90
33594;DHT22;19920;52.242;20.940;2023-02-15T11:06:05;4.50;99.90
33594;DHT22;19920;52.242;20.940;2023-02-15T11:08:37;4.60;99.90
33594;DHT22;19920;52.242;20.940;2023-02-15T11:11:08;4.70;99.90
33594;DHT22;19920;52.242;20.940;2023-02-15T11:13:44;4.70;99.90
33594;DHT22;19920;52.242;20.940;2023-02-15T11:16:34;4.80;99.90
33594;DHT22;19920;52.242;20.940;2023-02-15T11:19:11;4.70;99.90
33594;DHT22;19920;52.242;20.940;2023-02-15T11:21:44;4.60;99.90
33594;DHT22;19920;52.242;20.940;2023-02-15T11:24:13;4.70;99.90
33594;DHT22;19920;52.242;20.940;2023-02-15T11:26:54;4.70;99.90
33594;DHT22;19920;52.242;20.940;2023-02-15T11:31:55;4.90;99.90
33594;DHT22;19920;52.242;20.940;2023-02-15T11:36:51;4.90;99.90
33594;DHT22;19920;52.242;20.940;2023-02-15T11:39:20;4.90;99.90
33594;DHT22;19920;52.242;20.940;2023-02-15T11:41:53;4.90;99.90
33594;DHT22;19920;52.242;20.940;2023-02-15T11:44:32;4.90;99.90
33594;DHT22;19920;52.242;20.940;2023-02-15T11:47:01;4.90;99.90
33594;DHT22;19920;52.242;20.940;2023-02-15T11:49:32;5.00;99.90
33594;DHT22;19920;52.242;20.940;2023-02-15T11:52:01;4.90;99.90
33594;DHT22;19920;52.242;20.940;2023-02-15T11:54:31;4.90;99.90
33594;DHT22;19920;52.242;20.940;2023-02-15T11:59:40;5.00;99.90
33594;DHT22;19920;52.242;20.940;2023-02-15T12:02:17;5.00;99.90
33594;DHT22;19920;52.242;20.940;2023-02-15T12:04:50;5.20;99.90
33594;DHT22;19920;52.242;20.940;2023-02-15T12:10:17;4.90;99.90
33594;DHT22;19920;52.242;20.940;2023-02-15T12:12:45;4.80;99.90
33594;DHT22;19920;52.242;20.940;2023-02-15T12:15:12;4.80;99.90
33594;DHT22;19920;52.242;20.940;2023-02-15T12:17:49;4.90;99.90
33594;DHT22;19920;52.242;20.940;2023-02-15T12:22:55;5.00;99.90
33594;DHT22;19920;52.242;20.940;2023-02-15T12:25:40;5.10;99.90
33594;DHT22;19920;52.242;20.940;2023-02-15T12:28:33;5.00;99.90
33594;DHT22;19920;52.242;20.940;2023-02-15T12:31:01;5.10;99.90
33594;DHT22;19920;52.242;20.940;2023-02-15T12:33:39;5.20;99.90
33594;DHT22;19920;52.242;20.940;2023-02-15T12:36:15;5.20;99.90
33594;DHT22;19920;52.242;20.940;2023-02-15T12:38:43;5.20;99.90
33594;DHT22;19920;52.242;20.940;2023-02-15T12:41:27;5.10;99.90
33594;DHT22;19920;52.242;20.940;2023-02-15T12:44:20;5.20;99.90
33594;DHT22;19920;52.242;20.940;2023-02-15T12:49:33;5.30;99.90
33594;DHT22;19920;52.242;20.940;2023-02-15T12:52:02;5.20;99.90
33594;DHT22;19920;52.242;20.940;2023-02-15T12:54:41;5.20;99.90
33594;DHT22;19920;52.242;20.940;2023-02-15T12:59:51;5.20;99.90
33594;DHT22;19920;52.242;20.940;2023-02-15T13:05:34;5.20;99.90
33594;DHT22;19920;52.242;20.940;2023-02-15T13:08:09;5.20;99.90
33594;DHT22;19920;52.242;20.940;2023-02-15T13:10:58;5.20;99.90
33594;DHT22;19920;52.242;20.940;2023-02-15T13:13:31;5.10;99.90
33594;DHT22;19920;52.242;20.940;2023-02-15T13:16:07;5.10;99.90
33594;DHT22;19920;52.242;20.940;2023-02-15T13:18:37;5.20;99.90
33594;DHT22;19920;52.242;20.940;2023-02-15T13:21:14;5.20;99.90
33594;DHT22;19920;52.242;20.940;2023-02-15T13:24:00;5.20;99.90
33594;DHT22;19920;52.242;20.940;2023-02-15T13:26:30;5.20;99.90
33594;DHT22;19920;52.242;20.940;2023-02-15T13:28:59;5.30;99.90
33594;DHT22;19920;52.242;20.940;2023-02-15T13:31:28;5.30;99.90
33594;DHT22;19920;52.242;20.940;2023-02-15T13:34:07;5.30;99.90
33594;DHT22;19920;52.242;20.940;2023-02-15T13:45:05;5.30;99.90
33594;DHT22;19920;52.242;20.940;2023-02-15T13:50:43;5.20;99.90
33594;DHT22;19920;52.242;20.940;2023-02-15T14:11:57;5.10;99.90
33594;DHT22;19920;52.242;20.940;2023-02-15T14:20:21;4.90;99.90
33594;DHT22;19920;52.242;20.940;2023-02-15T14:26:34;5.00;99.90
33594;DHT22;19920;52.242;20.940;2023-02-15T14:29:15;4.90;99.90
33594;DHT22;19920;52.242;20.940;2023-02-15T14:31:47;4.90;99.90
33594;DHT22;19920;52.242;20.940;2023-02-15T14:34:25;4.90;99.90
33594;DHT22;19920;52.242;20.940;2023-02-15T14:36:53;4.90;99.90
33594;DHT22;19920;52.242;20.940;2023-02-15T14:48:30;4.90;99.90
33594;DHT22;19920;52.242;20.940;2023-02-15T14:50:56;5.00;99.90
33594;DHT22;19920;52.242;20.940;2023-02-15T14:53:36;5.00;99.90
33594;DHT22;19920;52.242;20.940;2023-02-15T15:01:15;4.90;99.90
33594;DHT22;19920;52.242;20.940;2023-02-15T15:03:50;4.90;99.90
33594;DHT22;19920;52.242;20.940;2023-02-15T15:06:56;4.90;99.90
33594;DHT22;19920;52.242;20.940;2023-02-15T15:09:26;4.90;99.90
33594;DHT22;19920;52.242;20.940;2023-02-15T15:11:54;4.90;99.90
33594;DHT22;19920;52.242;20.940;2023-02-15T15:16:59;4.70;99.90
33594;DHT22;19920;52.242;20.940;2023-02-15T15:22:21;4.80;99.90
33594;DHT22;19920;52.242;20.940;2023-02-15T15:24:52;4.80;99.90
33594;DHT22;19920;52.242;20.940;2023-02-15T15:27:51;4.90;99.90
33594;DHT22;19920;52.242;20.940;2023-02-15T15:44:11;4.80;99.90
33594;DHT22;19920;52.242;20.940;2023-02-15T15:49:47;4.50;99.90
33594;DHT22;19920;52.242;20.940;2023-02-15T15:52:19;4.50;99.90
33594;DHT22;19920;52.242;20.940;2023-02-15T15:54:48;4.50;99.90
33594;DHT22;19920;52.242;20.940;2023-02-15T15:57:34;4.40;99.90
33594;DHT22;19920;52.242;20.940;2023-02-15T16:00:00;4.40;99.90
33594;DHT22;19920;52.242;20.940;2023-02-15T16:02:26;4.40;99.90
33594;DHT22;19920;52.242;20.940;2023-02-15T16:04:52;4.50;99.90
33594;DHT22;19920;52.242;20.940;2023-02-15T16:10:02;4.50;99.90
33594;DHT22;19920;52.242;20.940;2023-02-15T16:12:30;4.50;99.90
33594;DHT22;19920;52.242;20.940;2023-02-15T16:14:57;4.50;99.90
33594;DHT22;19920;52.242;20.940;2023-02-15T16:17:28;4.50;99.90
33594;DHT22;19920;52.242;20.940;2023-02-15T16:22:34;4.50;99.90
33594;DHT22;19920;52.242;20.940;2023-02-15T16:28:06;4.60;99.90
33594;DHT22;19920;52.242;20.940;2023-02-15T16:30:34;4.50;99.90
33594;DHT22;19920;52.242;20.940;2023-02-15T16:35:37;4.50;99.90
33594;DHT22;19920;52.242;20.940;2023-02-15T16:38:04;4.50;99.90
33594;DHT22;19920;52.242;20.940;2023-02-15T16:43:25;4.40;99.90
33594;DHT22;19920;52.242;20.940;2023-02-15T16:45:58;4.40;99.90
33594;DHT22;19920;52.242;20.940;2023-02-15T16:48:26;4.40;99.90
33594;DHT22;19920;52.242;20.940;2023-02-15T16:50:55;4.40;99.90
33594;DHT22;19920;52.242;20.940;2023-02-15T16:53:27;4.40;99.90
33594;DHT22;19920;52.242;20.940;2023-02-15T16:56:01;4.40;99.90
33594;DHT22;19920;52.242;20.940;2023-02-15T16:58:32;4.30;99.90
33594;DHT22;19920;52.242;20.940;2023-02-15T17:01:02;4.30;99.90
33594;DHT22;19920;52.242;20.940;2023-02-15T17:03:28;4.40;99.90
33594;DHT22;19920;52.242;20.940;2023-02-15T17:05:57;4.40;99.90
33594;DHT22;19920;52.242;20.940;2023-02-15T17:08:31;4.20;99.90
33594;DHT22;19920;52.242;20.940;2023-02-15T17:11:11;4.30;99.90
33594;DHT22;19920;52.242;20.940;2023-02-15T17:13:37;4.10;99.90
33594;DHT22;19920;52.242;20.940;2023-02-15T17:18:38;4.20;99.90
33594;DHT22;19920;52.242;20.940;2023-02-15T17:21:13;4.00;99.90
33594;DHT22;19920;52.242;20.940;2023-02-15T17:23:47;4.00;99.90
33594;DHT22;19920;52.242;20.940;2023-02-15T17:28:47;4.00;99.90
33594;DHT22;19920;52.242;20.940;2023-02-15T17:31:16;4.00;99.90
33594;DHT22;19920;52.242;20.940;2023-02-15T17:33:43;4.00;99.90
33594;DHT22;19920;52.242;20.940;2023-02-15T17:36:21;4.10;99.90
33594;DHT22;19920;52.242;20.940;2023-02-15T17:43:49;4.10;99.90
33594;DHT22;19920;52.242;20.940;2023-02-15T17:46:14;4.10;99.90
33594;DHT22;19920;52.242;20.940;2023-02-15T17:48:46;4.10;99.90
33594;DHT22;19920;52.242;20.940;2023-02-15T17:51:13;4.00;99.90
33594;DHT22;19920;52.242;20.940;2023-02-15T17:53:40;4.00;99.90
33594;DHT22;19920;52.242;20.940;2023-02-15T17:56:06;4.00;99.90
33594;DHT22;19920;52.242;20.940;2023-02-15T17:58:36;4.00;99.90
33594;DHT22;19920;52.242;20.940;2023-02-15T18:01:06;4.00;99.90
33594;DHT22;19920;52.242;20.940;2023-02-15T18:03:52;4.10;99.90
33594;DHT22;19920;52.242;20.940;2023-02-15T18:06:38;3.90;99.90
33594;DHT22;19920;52.242;20.940;2023-02-15T18:09:24;4.00;99.90
33594;DHT22;19920;52.242;20.940;2023-02-15T18:14:42;3.90;99.90
33594;DHT22;19920;52.242;20.940;2023-02-15T18:17:11;3.90;99.90
33594;DHT22;19920;52.242;20.940;2023-02-15T18:19:38;3.90;99.90
33594;DHT22;19920;52.242;20.940;2023-02-15T18:22:13;4.00;99.90
33594;DHT22;19920;52.242;20.940;2023-02-15T18:24:39;3.90;99.90
33594;DHT22;19920;52.242;20.940;2023-02-15T18:27:05;3.90;99.90
33594;DHT22;19920;52.242;20.940;2023-02-15T18:29:31;3.90;99.90
33594;DHT22;19920;52.242;20.940;2023-02-15T18:31:59;3.90;99.90
33594;DHT22;19920;52.242;20.940;2023-02-15T18:34:35;3.80;99.90
33594;DHT22;19920;52.242;20.940;2023-02-15T18:37:04;3.80;99.90
33594;DHT22;19920;52.242;20.940;2023-02-15T18:39:40;3.80;99.90
33594;DHT22;19920;52.242;20.940;2023-02-15T18:42:29;3.70;99.90
33594;DHT22;19920;52.242;20.940;2023-02-15T18:47:38;3.70;99.90
33594;DHT22;19920;52.242;20.940;2023-02-15T18:50:05;3.70;99.90
33594;DHT22;19920;52.242;20.940;2023-02-15T18:52:35;3.70;99.90
33594;DHT22;19920;52.242;20.940;2023-02-15T18:55:04;3.70;99.90
33594;DHT22;19920;52.242;20.940;2023-02-15T18:57:34;3.90;99.90
33594;DHT22;19920;52.242;20.940;2023-02-15T18:59:59;3.90;99.90
33594;DHT22;19920;52.242;20.940;2023-02-15T19:02:25;3.80;99.90
33594;DHT22;19920;52.242;20.940;2023-02-15T19:04:52;3.90;99.90
33594;DHT22;19920;52.242;20.940;2023-02-15T19:07:24;3.90;99.90
33594;DHT22;19920;52.242;20.940;2023-02-15T19:09:58;3.90;99.90
33594;DHT22;19920;52.242;20.940;2023-02-15T19:12:26;3.80;99.90
33594;DHT22;19920;52.242;20.940;2023-02-15T19:14:52;3.90;99.90
33594;DHT22;19920;52.242;20.940;2023-02-15T19:17:19;3.90;99.90
33594;DHT22;19920;52.242;20.940;2023-02-15T19:19:46;3.90;99.90
33594;DHT22;19920;52.242;20.940;2023-02-15T19:22:17;4.00;99.90
33594;DHT22;19920;52.242;20.940;2023-02-15T19:24:46;4.00;99.90
33594;DHT22;19920;52.242;20.940;2023-02-15T19:27:39;4.00;99.90